Time;durP1;ratioP1;P1;durP2;ratioP2;P2;SDS_P1;SDS_P2;PMS_P1;PMS_P2;Temp;Humidity;BMP_temperature;BMP_pressure;BME280_temperature;BME280_humidity;BME280_pressure;Samples;Min_cycle;Max_cycle;Signal;HPM_P1;HPM_P2
2022/04/15 00:00:28;;;;;;;17.48;7.80;;;17.60;48.20;;;;;;5016466;28;20022;-81
2022/04/15 00:02:53;;;;;;;21.85;8.57;;;17.60;49.10;;;;;;5016851;28;20026;-81
2022/04/15 00:05:36;;;;;;;17.60;8.30;;;17.50;49.30;;;;;;5017133;28;20555;-81
2022/04/15 00:08:10;;;;;;;16.27;7.10;;;17.50;49.30;;;;;;5018320;28;20561;-79
2022/04/15 00:10:45;;;;;;;15.82;7.05;;;17.40;48.40;;;;;;5018845;28;20061;-79
2022/04/15 00:13:12;;;;;;;11.60;7.13;;;17.40;49.70;;;;;;5018062;28;20033;-81
2022/04/15 00:15:38;;;;;;;13.45;8.75;;;17.40;49.70;;;;;;5019138;28;20048;-82
2022/04/15 00:18:04;;;;;;;13.90;6.78;;;17.30;49.90;;;;;;5019212;28;20052;-81
2022/04/15 00:20:30;;;;;;;20.75;7.10;;;17.30;49.80;;;;;;5017602;28;20068;-79
2022/04/15 00:22:58;;;;;;;12.75;7.10;;;17.30;49.70;;;;;;5017803;28;20068;-79
2022/04/15 00:25:24;;;;;;;17.20;7.43;;;17.30;50.00;;;;;;5016883;28;20041;-81
2022/04/15 00:27:50;;;;;;;12.32;7.25;;;17.30;50.20;;;;;;5017081;28;20108;-80
2022/04/15 00:30:16;;;;;;;19.92;7.57;;;17.20;50.20;;;;;;5017204;28;20053;-80
2022/04/15 00:32:41;;;;;;;13.90;7.18;;;17.20;50.20;;;;;;5017064;28;20033;-79
2022/04/15 00:35:08;;;;;;;14.93;7.53;;;17.20;50.20;;;;;;5022525;28;20037;-80
2022/04/15 00:37:34;;;;;;;12.55;7.20;;;17.20;50.20;;;;;;5021008;28;20064;-83
2022/04/15 00:40:03;;;;;;;15.50;6.88;;;17.10;50.50;;;;;;5016626;28;20026;-80
2022/04/15 00:42:29;;;;;;;17.52;6.80;;;17.10;50.60;;;;;;5017182;28;20061;-82
2022/04/15 00:45:00;;;;;;;13.85;6.50;;;17.10;50.90;;;;;;5016691;28;20117;-82
2022/04/15 00:47:51;;;;;;;13.85;7.20;;;17.10;51.00;;;;;;5014777;28;20069;-80
2022/04/15 00:50:25;;;;;;;13.93;6.82;;;17.10;50.00;;;;;;5014611;28;20083;-79
2022/04/15 00:52:53;;;;;;;14.48;7.30;;;17.10;49.70;;;;;;5014406;28;20467;-80
2022/04/15 00:55:21;;;;;;;17.85;7.82;;;17.00;51.30;;;;;;5014631;28;20061;-80
2022/04/15 00:57:51;;;;;;;12.55;7.30;;;16.90;51.10;;;;;;5014699;28;20026;-80
2022/04/15 01:00:18;;;;;;;19.20;7.78;;;16.90;51.10;;;;;;5014626;28;20040;-79
2022/04/15 01:02:44;;;;;;;19.20;8.00;;;16.90;51.40;;;;;;5014064;28;20418;-81
2022/04/15 01:05:12;;;;;;;14.20;7.68;;;17.00;51.60;;;;;;5013858;28;20044;-79
2022/04/15 01:07:46;;;;;;;19.15;8.30;;;17.00;51.50;;;;;;5013968;28;20490;-79
2022/04/15 01:10:13;;;;;;;12.07;7.93;;;16.90;51.40;;;;;;5013825;28;20030;-79
2022/04/15 01:12:41;;;;;;;13.10;7.57;;;16.80;51.90;;;;;;5013919;28;20025;-79
2022/04/15 01:15:09;;;;;;;15.50;8.13;;;16.80;51.90;;;;;;5013774;28;20030;-81
2022/04/15 01:17:36;;;;;;;16.27;7.78;;;16.80;51.50;;;;;;5013650;28;20076;-80
2022/04/15 01:20:07;;;;;;;15.95;8.05;;;16.80;51.90;;;;;;5013921;28;20022;-79
2022/04/15 01:22:39;;;;;;;13.88;8.15;;;16.80;52.00;;;;;;5013959;28;20022;-81
2022/04/15 01:25:06;;;;;;;13.18;7.10;;;16.80;52.60;;;;;;5014247;28;20116;-81
2022/04/15 01:27:37;;;;;;;16.80;8.30;;;16.80;52.20;;;;;;5013680;28;20072;-80
2022/04/15 01:30:09;;;;;;;16.63;8.10;;;16.80;52.30;;;;;;5013631;28;20034;-80
2022/04/15 01:32:35;;;;;;;15.10;8.10;;;16.80;52.40;;;;;;5013642;28;20022;-83
2022/04/15 01:35:01;;;;;;;13.40;7.45;;;16.70;52.10;;;;;;5013467;28;20030;-82
2022/04/15 01:37:30;;;;;;;22.60;8.02;;;16.70;52.30;;;;;;5013864;28;20443;-82
2022/04/15 01:39:56;;;;;;;16.58;8.05;;;16.60;53.50;;;;;;5014244;28;20038;-82
2022/04/15 01:42:22;;;;;;;14.63;8.18;;;16.60;53.30;;;;;;5014024;28;20057;-82
2022/04/15 01:44:49;;;;;;;14.38;8.27;;;16.60;53.10;;;;;;5013422;28;20052;-80
2022/04/15 01:47:16;;;;;;;13.43;8.18;;;16.70;53.00;;;;;;5013516;28;20049;-79
2022/04/15 01:49:42;;;;;;;15.07;8.95;;;16.60;53.10;;;;;;5014318;28;20021;-80
2022/04/15 01:52:09;;;;;;;19.17;10.02;;;16.60;52.40;;;;;;5012387;28;20037;-81
2022/04/15 01:54:34;;;;;;;24.27;12.75;;;16.60;52.40;;;;;;5014051;28;20041;-79
2022/04/15 01:57:01;;;;;;;17.70;11.32;;;16.60;52.50;;;;;;5018756;28;20078;-79
2022/04/15 01:59:26;;;;;;;22.85;11.90;;;16.50;52.30;;;;;;5020790;28;20068;-79
2022/04/15 02:01:54;;;;;;;21.38;12.15;;;16.50;52.40;;;;;;5018711;28;20030;-80
2022/04/15 02:04:26;;;;;;;20.95;11.73;;;16.50;53.00;;;;;;5014748;28;20053;-80
2022/04/15 02:06:53;;;;;;;22.63;12.65;;;16.40;52.20;;;;;;5015265;28;20018;-81
2022/04/15 02:09:19;;;;;;;24.52;12.60;;;16.40;53.60;;;;;;5013888;28;20117;-80
2022/04/15 02:11:46;;;;;;;28.58;13.35;;;16.40;53.50;;;;;;5015469;28;20022;-80
2022/04/15 02:14:12;;;;;;;23.13;11.75;;;16.40;54.10;;;;;;5014928;28;20086;-81
2022/04/15 02:16:39;;;;;;;18.98;11.38;;;16.40;53.80;;;;;;5012940;28;20053;-81
2022/04/15 02:19:05;;;;;;;23.20;13.05;;;16.30;54.20;;;;;;5011694;28;20033;-79
2022/04/15 02:21:30;;;;;;;22.20;11.18;;;16.30;54.20;;;;;;5011265;28;20030;-80
2022/04/15 02:23:56;;;;;;;22.90;10.77;;;16.30;54.00;;;;;;5012871;28;20033;-80
2022/04/15 02:26:22;;;;;;;18.27;11.88;;;16.30;54.20;;;;;;5012872;28;20038;-78
2022/04/15 02:28:48;;;;;;;23.23;11.60;;;16.30;54.00;;;;;;5012823;28;20033;-82
2022/04/15 02:31:13;;;;;;;18.60;11.82;;;16.20;53.70;;;;;;5012642;28;20412;-81
2022/04/15 02:33:39;;;;;;;22.83;12.23;;;16.20;54.00;;;;;;5012717;28;20026;-81
2022/04/15 02:36:05;;;;;;;20.48;12.23;;;16.20;54.00;;;;;;5012715;28;20026;-83
2022/04/15 02:38:31;;;;;;;21.90;12.30;;;16.20;53.90;;;;;;5012979;28;20026;-81
2022/04/15 02:40:57;;;;;;;25.02;12.70;;;16.20;53.50;;;;;;5012772;28;20080;-81
2022/04/15 02:43:25;;;;;;;23.38;11.95;;;16.10;53.60;;;;;;5013706;28;20375;-81
2022/04/15 02:45:51;;;;;;;22.98;13.20;;;16.10;54.40;;;;;;5012724;28;20069;-80
2022/04/15 02:48:17;;;;;;;21.52;12.40;;;16.10;54.10;;;;;;5013386;28;20018;-81
2022/04/15 02:50:45;;;;;;;22.27;11.48;;;16.10;54.10;;;;;;5013920;28;20030;-81
2022/04/15 02:53:11;;;;;;;21.30;11.57;;;16.10;54.70;;;;;;5014257;28;20029;-83
2022/04/15 02:55:37;;;;;;;19.38;10.93;;;16.10;54.40;;;;;;5013269;28;20045;-82
2022/04/15 02:58:03;;;;;;;20.15;10.70;;;16.10;54.00;;;;;;5011432;28;20490;-82
2022/04/15 03:00:28;;;;;;;20.33;11.05;;;16.10;53.90;;;;;;5012838;28;20041;-82
2022/04/15 03:02:54;;;;;;;19.27;10.82;;;16.10;54.10;;;;;;5014701;28;20033;-82
2022/04/15 03:05:20;;;;;;;22.35;11.23;;;16.10;54.20;;;;;;5016479;28;20117;-80
2022/04/15 03:07:45;;;;;;;33.65;11.23;;;16.20;54.60;;;;;;5016495;28;20168;-82
2022/04/15 03:10:11;;;;;;;19.42;11.02;;;16.20;55.30;;;;;;5016625;28;20025;-82
2022/04/15 03:12:38;;;;;;;26.30;12.98;;;16.10;54.40;;;;;;5015125;28;20034;-83
2022/04/15 03:15:06;;;;;;;23.38;11.75;;;16.20;54.90;;;;;;5015061;28;20026;-82
2022/04/15 03:17:33;;;;;;;20.35;11.25;;;16.10;54.60;;;;;;5016348;28;20030;-81
2022/04/15 03:20:02;;;;;;;21.27;11.45;;;16.10;55.00;;;;;;5016436;28;20038;-82
2022/04/15 03:22:28;;;;;;;17.60;10.20;;;16.10;54.50;;;;;;5016200;28;20026;-81
2022/04/15 03:24:54;;;;;;;19.48;10.70;;;16.10;54.90;;;;;;5016102;28;20026;-83
2022/04/15 03:27:20;;;;;;;17.15;10.18;;;16.10;54.90;;;;;;5016929;28;20547;-81
2022/04/15 03:29:45;;;;;;;17.65;9.75;;;16.10;54.10;;;;;;5015971;28;20124;-83
2022/04/15 03:32:11;;;;;;;14.20;8.73;;;16.10;54.40;;;;;;5017425;28;20026;-82
2022/04/15 03:34:37;;;;;;;14.10;8.50;;;16.10;54.50;;;;;;5024103;28;20056;-79
2022/04/15 03:37:04;;;;;;;20.40;8.27;;;16.10;54.80;;;;;;5034053;28;20033;-79
2022/04/15 03:39:30;;;;;;;13.93;7.90;;;16.10;55.00;;;;;;5031604;28;20026;-81
2022/04/15 03:41:56;;;;;;;15.43;9.15;;;16.10;55.10;;;;;;5029250;28;20064;-82
2022/04/15 03:44:21;;;;;;;14.18;8.50;;;16.00;55.20;;;;;;5025192;28;20022;-80
2022/04/15 03:46:47;;;;;;;18.02;8.05;;;16.00;55.20;;;;;;5018274;28;20554;-81
2022/04/15 03:49:12;;;;;;;16.88;7.97;;;16.00;55.70;;;;;;5015781;28;20018;-80
2022/04/15 03:51:38;;;;;;;15.40;8.85;;;15.90;55.90;;;;;;5015541;28;20133;-82
2022/04/15 03:54:04;;;;;;;18.00;8.80;;;15.90;56.20;;;;;;5015680;28;20025;-79
2022/04/15 03:56:30;;;;;;;14.82;8.00;;;15.80;56.30;;;;;;5015387;28;20375;-80
2022/04/15 03:58:56;;;;;;;15.05;8.10;;;15.80;56.40;;;;;;5015522;28;20034;-82
2022/04/15 04:01:23;;;;;;;17.17;7.80;;;15.80;56.70;;;;;;5019152;28;20121;-80
2022/04/15 04:03:49;;;;;;;18.77;7.63;;;15.70;57.10;;;;;;5019545;28;20378;-79
2022/04/15 04:06:15;;;;;;;13.75;7.57;;;15.60;57.50;;;;;;5018648;28;20042;-80
2022/04/15 04:08:48;;;;;;;13.15;6.90;;;15.60;57.30;;;;;;5018240;28;20029;-80
2022/04/15 04:11:15;;;;;;;;;;;15.50;57.90;;;;;;5023592;28;20040;-79
2022/04/15 04:13:41;;;;;;;13.27;7.78;;;15.50;59.40;;;;;;5018350;28;20437;-80
2022/04/15 04:16:07;;;;;;;22.23;8.93;;;15.50;58.30;;;;;;5015168;28;20106;-82
2022/04/15 04:18:33;;;;;;;15.98;9.75;;;15.40;58.90;;;;;;5015049;28;20100;-77
2022/04/15 04:20:58;;;;;;;16.15;10.13;;;15.40;58.20;;;;;;5014969;28;20025;-76
2022/04/15 04:23:24;;;;;;;21.42;10.65;;;15.30;58.30;;;;;;5014985;28;20030;-80
2022/04/15 04:25:50;;;;;;;16.65;10.20;;;15.30;58.40;;;;;;5014692;28;20125;-82
2022/04/15 04:28:15;;;;;;;18.92;11.15;;;15.20;58.10;;;;;;5014675;28;20026;-80
2022/04/15 04:30:41;;;;;;;16.38;9.82;;;15.10;58.20;;;;;;5014674;28;20113;-80
2022/04/15 04:33:07;;;;;;;16.42;9.57;;;15.10;58.50;;;;;;5014764;28;20471;-78
2022/04/15 04:35:32;;;;;;;17.25;10.25;;;15.20;58.30;;;;;;5014636;28;20040;-80
2022/04/15 04:37:58;;;;;;;22.45;10.05;;;15.20;58.30;;;;;;5014571;28;20105;-82
2022/04/15 04:40:24;;;;;;;19.52;10.20;;;15.20;58.40;;;;;;5014584;28;20041;-79
2022/04/15 04:42:51;;;;;;;19.23;9.55;;;15.20;58.30;;;;;;5014616;28;20440;-80
2022/04/15 04:45:18;;;;;;;15.63;9.32;;;15.10;58.40;;;;;;5014712;28;20080;-79
2022/04/15 04:47:46;;;;;;;15.40;8.85;;;15.10;58.70;;;;;;5021736;28;20026;-77
2022/04/15 04:50:12;;;;;;;17.88;9.43;;;15.10;58.80;;;;;;5025844;28;20041;-83
2022/04/15 04:52:39;;;;;;;17.55;10.50;;;15.10;58.30;;;;;;5015483;28;20497;-80
2022/04/15 04:55:06;;;;;;;17.75;9.68;;;15.10;58.30;;;;;;5014574;28;20553;-79
2022/04/15 04:57:32;;;;;;;14.32;9.20;;;15.00;58.60;;;;;;5014255;28;20493;-80
2022/04/15 04:59:57;;;;;;;18.23;9.13;;;15.00;59.30;;;;;;5014033;28;20074;-80
2022/04/15 05:02:23;;;;;;;15.52;8.73;;;14.90;59.20;;;;;;5012761;28;20128;-80
2022/04/15 05:04:49;;;;;;;12.65;7.65;;;15.00;59.30;;;;;;5013071;28;20109;-85
2022/04/15 05:07:15;;;;;;;12.02;7.25;;;15.00;59.10;;;;;;5014302;28;20044;-82
2022/04/15 05:09:43;;;;;;;13.00;7.32;;;15.00;58.70;;;;;;5014057;28;20430;-77
2022/04/15 05:12:12;;;;;;;17.15;7.88;;;15.10;58.70;;;;;;5014107;28;20113;-84
2022/04/15 05:14:38;;;;;;;16.05;7.60;;;15.10;58.30;;;;;;5012776;28;20033;-80
2022/04/15 05:17:05;;;;;;;12.70;7.63;;;15.10;58.60;;;;;;5014124;28;20026;-80
2022/04/15 05:19:31;;;;;;;15.10;7.63;;;15.10;59.00;;;;;;5015011;28;20014;-83
2022/04/15 05:21:57;;;;;;;17.90;8.23;;;15.20;58.90;;;;;;5014054;28;20018;-78
2022/04/15 05:24:22;;;;;;;12.70;7.22;;;15.20;58.80;;;;;;5014639;28;20026;-78
2022/04/15 05:26:48;;;;;;;14.95;7.68;;;15.30;59.10;;;;;;5013444;28;20029;-78
2022/04/15 05:29:14;;;;;;;14.73;7.60;;;15.30;59.00;;;;;;5013712;28;20160;-81
2022/04/15 05:31:39;;;;;;;15.80;7.78;;;15.30;59.10;;;;;;5013758;28;20030;-81
2022/04/15 05:34:05;;;;;;;17.33;7.72;;;15.30;58.90;;;;;;5014695;28;20100;-80
2022/04/15 05:36:31;;;;;;;15.13;7.68;;;15.40;58.90;;;;;;5013745;28;20141;-81
2022/04/15 05:38:57;;;;;;;13.35;8.00;;;15.40;59.50;;;;;;5012264;28;20026;-82
2022/04/15 05:41:22;;;;;;;14.77;7.68;;;15.50;58.70;;;;;;5013417;28;20026;-80
2022/04/15 05:43:49;;;;;;;13.18;7.28;;;15.50;58.40;;;;;;5013795;28;20030;-79
2022/04/15 05:46:15;;;;;;;11.70;7.63;;;15.50;58.10;;;;;;5012939;28;20141;-80
2022/04/15 05:48:41;;;;;;;19.02;7.82;;;15.70;58.60;;;;;;5013391;28;20035;-80
2022/04/15 05:51:06;;;;;;;17.15;7.63;;;15.70;58.20;;;;;;5012215;28;20395;-81
2022/04/15 05:53:32;;;;;;;14.02;7.60;;;15.80;58.50;;;;;;5013183;28;20108;-81
2022/04/15 05:55:58;;;;;;;12.30;7.50;;;15.90;58.30;;;;;;5012894;28;20041;-80
2022/04/15 05:58:25;;;;;;;14.88;7.30;;;15.90;57.10;;;;;;5013471;28;20022;-79
2022/04/15 06:00:51;;;;;;;15.18;7.75;;;16.00;57.50;;;;;;5012130;28;20037;-82
2022/04/15 06:03:20;;;;;;;15.93;8.63;;;16.10;57.00;;;;;;5029856;28;20494;-77
2022/04/15 06:05:47;;;;;;;12.30;6.97;;;16.10;57.30;;;;;;5032856;28;20099;-77
2022/04/15 06:08:13;;;;;;;12.88;7.22;;;16.20;57.10;;;;;;5032704;28;20022;-77
2022/04/15 06:10:39;;;;;;;17.05;7.00;;;16.20;57.40;;;;;;5031264;28;20385;-76
2022/04/15 06:13:08;;;;;;;15.10;7.35;;;16.30;57.50;;;;;;5032085;28;20029;-79
2022/04/15 06:15:36;;;;;;;21.23;9.68;;;16.20;56.70;;;;;;5031979;28;20021;-74
2022/04/15 06:18:03;;;;;;;17.38;7.95;;;16.20;57.40;;;;;;5030741;28;20044;-73
2022/04/15 06:20:29;;;;;;;17.52;7.55;;;16.20;57.00;;;;;;5031970;28;20022;-76
2022/04/15 06:22:55;;;;;;;16.15;7.63;;;16.20;57.20;;;;;;5025415;28;20061;-76
2022/04/15 06:25:21;;;;;;;14.85;7.63;;;16.30;56.90;;;;;;5014816;28;20053;-75
2022/04/15 06:27:49;;;;;;;16.83;7.82;;;16.30;57.30;;;;;;5012214;28;20370;-77
2022/04/15 06:30:15;;;;;;;15.00;7.43;;;16.40;57.00;;;;;;5017014;28;20018;-78
2022/04/15 06:32:41;;;;;;;16.50;7.50;;;16.50;56.60;;;;;;5028358;28;20128;-78
2022/04/15 06:35:08;;;;;;;21.58;8.07;;;16.60;55.80;;;;;;5029667;28;20514;-76
2022/04/15 06:37:34;;;;;;;14.70;7.75;;;16.60;55.40;;;;;;5013563;28;20030;-79
2022/04/15 06:40:00;;;;;;;15.63;7.68;;;16.60;55.20;;;;;;5021672;28;20033;-77
2022/04/15 06:42:36;;;;;;;16.50;7.35;;;16.70;55.30;;;;;;5016507;28;20523;-79
2022/04/15 06:45:02;;;;;;;22.45;7.63;;;16.80;54.90;;;;;;5015934;28;20105;-73
2022/04/15 06:47:27;;;;;;;15.82;7.53;;;16.90;55.20;;;;;;5016339;28;20113;-73
2022/04/15 06:49:53;;;;;;;16.88;7.03;;;17.00;54.80;;;;;;5016182;28;20510;-73
2022/04/15 06:52:19;;;;;;;16.67;7.53;;;17.00;55.10;;;;;;5016779;28;20045;-80
2022/04/15 06:54:45;;;;;;;18.95;8.00;;;17.10;55.00;;;;;;5016635;28;20026;-75
2022/04/15 06:57:13;;;;;;;23.20;7.72;;;17.20;54.90;;;;;;5015974;28;20463;-74
2022/04/15 06:59:39;;;;;;;22.00;7.47;;;17.20;54.90;;;;;;5016027;28;20466;-73
2022/04/15 07:02:05;;;;;;;15.45;7.22;;;17.40;54.90;;;;;;5015917;28;20480;-72
2022/04/15 07:04:32;;;;;;;15.98;7.55;;;17.50;55.20;;;;;;5015919;28;20018;-73
2022/04/15 07:06:58;;;;;;;18.25;7.70;;;17.50;54.70;;;;;;5016067;28;20034;-74
2022/04/15 07:09:24;;;;;;;25.48;7.75;;;17.60;55.00;;;;;;5016111;28;20121;-84
2022/04/15 07:11:50;;;;;;;16.67;7.72;;;17.70;54.60;;;;;;5017732;28;20076;-72
2022/04/15 07:14:16;;;;;;;24.92;8.13;;;17.90;54.30;;;;;;5015755;28;20033;-73
2022/04/15 07:16:42;;;;;;;20.58;8.10;;;18.00;54.50;;;;;;5015657;28;20140;-71
2022/04/15 07:19:09;;;;;;;20.02;8.05;;;18.10;53.90;;;;;;5015651;28;20467;-75
2022/04/15 07:21:35;;;;;;;17.30;8.10;;;18.10;53.70;;;;;;5015526;28;20033;-72
2022/04/15 07:24:02;;;;;;;17.48;7.32;;;18.20;54.00;;;;;;5015317;28;20013;-73
2022/04/15 07:26:29;;;;;;;16.27;7.95;;;18.20;53.60;;;;;;5014058;28;20030;-73
2022/04/15 07:28:55;;;;;;;17.23;7.20;;;18.30;53.60;;;;;;5015189;28;20028;-73
2022/04/15 07:31:20;;;;;;;28.38;9.25;;;18.30;53.20;;;;;;5015110;28;20096;-72
2022/04/15 07:33:46;;;;;;;27.23;11.38;;;18.30;52.90;;;;;;5015070;28;20025;-75
2022/04/15 07:38:56;;;;;;;18.30;8.45;;;18.30;53.40;;;;;;5016253;28;20048;-74
2022/04/15 07:41:22;;;;;;;16.70;7.63;;;18.40;52.90;;;;;;5017286;28;20105;-75
2022/04/15 07:43:48;;;;;;;20.85;8.20;;;18.40;52.70;;;;;;5015997;28;20041;-75
2022/04/15 07:46:16;;;;;;;24.27;7.50;;;18.50;52.80;;;;;;5015802;28;20049;-78
2022/04/15 07:48:43;;;;;;;21.35;7.53;;;18.50;52.40;;;;;;5015151;28;20038;-78
2022/04/15 07:51:09;;;;;;;19.67;6.97;;;18.70;51.90;;;;;;5015320;28;20327;-76
2022/04/15 07:53:35;;;;;;;19.15;7.25;;;18.80;52.50;;;;;;5014783;28;20033;-75
2022/04/15 07:56:04;;;;;;;27.88;8.50;;;18.80;52.00;;;;;;5014938;28;20103;-72
2022/04/15 07:58:30;;;;;;;24.98;8.07;;;18.80;51.50;;;;;;5015241;28;20545;-71
2022/04/15 08:00:59;;;;;;;26.35;7.95;;;19.00;52.10;;;;;;5014651;28;20030;-75
2022/04/15 08:03:25;;;;;;;25.48;7.65;;;19.10;52.10;;;;;;5014238;28;20026;-76
2022/04/15 08:05:51;;;;;;;18.33;7.75;;;19.10;51.60;;;;;;5014922;28;20030;-75
2022/04/15 08:08:17;;;;;;;16.48;6.97;;;19.20;51.50;;;;;;5016551;28;20490;-74
2022/04/15 08:10:42;;;;;;;18.33;7.45;;;19.20;51.20;;;;;;5015619;28;20026;-72
2022/04/15 08:13:08;;;;;;;82.53;57.70;;;19.30;51.30;;;;;;5014920;28;20046;-72
2022/04/15 08:15:34;;;;;;;26.38;10.40;;;19.30;51.40;;;;;;5014852;28;20109;-73
2022/04/15 08:18:00;;;;;;;14.57;7.68;;;19.40;51.40;;;;;;5014819;28;20105;-72
2022/04/15 08:20:26;;;;;;;20.63;8.30;;;19.40;50.90;;;;;;5014784;28;20101;-73
2022/04/15 08:22:52;;;;;;;18.17;7.38;;;19.40;50.90;;;;;;5014855;28;20494;-74
2022/04/15 08:25:19;;;;;;;13.55;6.90;;;19.40;50.90;;;;;;5015058;28;20050;-76
2022/04/15 08:27:45;;;;;;;15.48;6.97;;;19.50;49.80;;;;;;5014771;28;20030;-72
2022/04/15 08:30:11;;;;;;;19.80;7.22;;;19.60;50.70;;;;;;5014966;28;20121;-74
2022/04/15 08:32:37;;;;;;;24.60;7.18;;;19.70;50.90;;;;;;5013613;28;20024;-72
2022/04/15 08:35:04;;;;;;;16.92;6.55;;;19.70;50.80;;;;;;5013176;28;20022;-81
2022/04/15 08:37:30;;;;;;;19.33;6.80;;;19.80;50.50;;;;;;5014842;28;20028;-74
2022/04/15 08:39:56;;;;;;;16.92;7.38;;;19.90;50.40;;;;;;5014947;28;20022;-81
2022/04/15 08:42:21;;;;;;;19.50;7.38;;;20.00;50.40;;;;;;5015403;28;20018;-71
2022/04/15 08:44:51;;;;;;;20.30;7.97;;;19.90;49.90;;;;;;5014581;28;20041;-71
2022/04/15 08:47:18;;;;;;;19.80;7.50;;;20.00;49.80;;;;;;5015146;28;20129;-79
2022/04/15 08:49:45;;;;;;;16.15;7.03;;;20.10;49.80;;;;;;5015610;28;20022;-72
2022/04/15 08:52:15;;;;;;;15.23;7.05;;;20.20;50.20;;;;;;5015559;28;20414;-73
2022/04/15 08:54:41;;;;;;;19.50;7.30;;;20.20;49.50;;;;;;5014012;28;20018;-78
2022/04/15 08:57:07;;;;;;;22.98;6.43;;;20.30;49.50;;;;;;5013980;28;20108;-77
2022/04/15 08:59:33;;;;;;;46.03;9.43;;;20.30;48.70;;;;;;5013456;28;20022;-77
2022/04/15 09:01:59;;;;;;;21.52;7.07;;;20.40;49.30;;;;;;5013616;28;20096;-75
2022/04/15 09:04:25;;;;;;;22.42;7.00;;;20.30;49.00;;;;;;5013618;28;20378;-76
2022/04/15 09:06:59;;;;;;;21.13;6.47;;;20.40;48.80;;;;;;5013729;28;20036;-76
2022/04/15 09:09:29;;;;;;;12.50;5.13;;;20.40;48.50;;;;;;5014393;28;20026;-76
2022/04/15 09:11:59;;;;;;;11.45;5.20;;;20.50;49.00;;;;;;5013665;28;20033;-74
2022/04/15 09:14:26;;;;;;;16.55;6.28;;;20.50;48.60;;;;;;5013506;28;20018;-73
2022/04/15 09:16:53;;;;;;;38.38;8.32;;;20.60;48.50;;;;;;5013341;28;20084;-74
2022/04/15 09:19:19;;;;;;;48.38;8.18;;;20.60;48.10;;;;;;5013853;28;20022;-74
2022/04/15 09:21:51;;;;;;;26.05;7.05;;;20.70;47.70;;;;;;5013328;28;20038;-77
2022/04/15 09:24:17;;;;;;;25.48;6.60;;;20.70;47.70;;;;;;5013710;28;20033;-74
2022/04/15 09:26:46;;;;;;;30.85;17.80;;;20.80;47.50;;;;;;5014039;28;20046;-76
2022/04/15 09:29:15;;;;;;;26.50;9.20;;;20.90;47.60;;;;;;5014991;28;20032;-75
2022/04/15 09:31:45;;;;;;;22.98;6.20;;;21.00;47.50;;;;;;5015118;28;20033;-78
2022/04/15 09:34:11;;;;;;;52.35;8.43;;;21.00;47.10;;;;;;5016540;28;20022;-78
2022/04/15 09:36:38;;;;;;;15.43;5.25;;;21.10;46.90;;;;;;5016040;28;20048;-77
2022/04/15 09:39:14;;;;;;;9.80;4.47;;;21.20;46.80;;;;;;5013573;28;20128;-81
2022/04/15 09:41:48;;;;;;;8.90;4.43;;;21.20;45.90;;;;;;5013563;28;20029;-75
2022/04/15 09:44:14;;;;;;;11.90;4.82;;;21.30;46.20;;;;;;5016359;28;20056;-83
2022/04/15 09:46:46;;;;;;;9.50;4.45;;;21.30;46.00;;;;;;5018586;28;20097;-79
2022/04/15 09:49:13;;;;;;;10.98;4.72;;;21.40;45.80;;;;;;5016961;28;20157;-78
2022/04/15 09:51:51;;;;;;;6.55;3.78;;;21.50;45.70;;;;;;5015794;28;20049;-77
2022/04/15 09:54:25;;;;;;;9.38;4.18;;;21.60;45.60;;;;;;5013184;28;20025;-72
2022/04/15 09:56:58;;;;;;;11.65;4.90;;;21.70;44.90;;;;;;5013188;28;20148;-74
2022/04/15 09:59:28;;;;;;;;;;;21.80;45.10;;;;;;5013351;28;20038;-72
2022/04/15 10:01:55;;;;;;;14.48;4.15;;;21.80;43.80;;;;;;5012940;28;19913;-73
2022/04/15 10:04:26;;;;;;;8.32;3.85;;;21.90;44.20;;;;;;5012335;28;20030;-76
2022/04/15 10:06:52;;;;;;;11.10;4.15;;;21.90;43.70;;;;;;5012926;28;20045;-74
2022/04/15 10:09:19;;;;;;;9.02;4.40;;;21.90;43.20;;;;;;5012926;28;20022;-73
2022/04/15 10:11:46;;;;;;;12.60;5.38;;;22.00;43.30;;;;;;5012160;28;20357;-76
2022/04/15 10:14:13;;;;;;;11.18;4.97;;;22.10;43.30;;;;;;5012324;28;20022;-73
2022/04/15 10:16:40;;;;;;;10.07;4.70;;;22.20;43.20;;;;;;5012676;28;20050;-72
2022/04/15 10:19:07;;;;;;;10.23;3.80;;;22.30;42.90;;;;;;5012382;28;20029;-74
2022/04/15 10:21:39;;;;;;;9.02;3.22;;;22.40;42.60;;;;;;5012555;28;20026;-71
2022/04/15 10:24:08;;;;;;;9.02;3.50;;;22.50;41.70;;;;;;5011033;28;20471;-78
2022/04/15 10:26:42;;;;;;;9.60;3.83;;;22.60;41.50;;;;;;5012355;28;20041;-72
2022/04/15 10:29:11;;;;;;;11.07;6.13;;;22.70;42.10;;;;;;5012694;28;20030;-75
2022/04/15 10:31:45;;;;;;;14.25;5.65;;;22.80;41.30;;;;;;5012463;28;20033;-76
2022/04/15 10:34:12;;;;;;;5.78;3.10;;;22.90;41.00;;;;;;5012505;28;20014;-82
2022/04/15 10:36:42;;;;;;;7.75;3.13;;;22.90;40.40;;;;;;5012559;28;20084;-72
2022/04/15 10:39:09;;;;;;;6.70;3.03;;;22.90;40.00;;;;;;5012386;28;20028;-81
2022/04/15 10:41:46;;;;;;;8.25;3.05;;;22.80;39.50;;;;;;5012860;28;20038;-72
2022/04/15 10:44:14;;;;;;;6.97;3.53;;;22.90;39.00;;;;;;5012834;28;20041;-73
2022/04/15 10:46:40;;;;;;;16.98;3.90;;;22.90;39.50;;;;;;5012535;28;20074;-72
2022/04/15 10:49:27;;;;;;;16.45;3.58;;;23.00;38.70;;;;;;5013014;28;20056;-80
2022/04/15 10:52:02;;;;;;;6.90;3.53;;;23.00;38.60;;;;;;5012498;28;20026;-76
2022/04/15 10:54:37;;;;;;;6.72;3.40;;;23.00;38.70;;;;;;5012503;28;20064;-76
2022/04/15 10:57:10;;;;;;;8.88;3.17;;;23.10;39.10;;;;;;5012567;28;20088;-79
2022/04/15 11:02:24;;;;;;;17.00;3.78;;;23.30;39.00;;;;;;5012712;28;20049;-75
2022/04/15 11:04:50;;;;;;;12.75;4.47;;;23.40;38.80;;;;;;5012551;28;20077;-73
2022/04/15 11:07:40;;;;;;;14.13;3.65;;;23.50;39.10;;;;;;5013736;28;20435;-79
2022/04/15 11:10:37;;;;;;;14.77;4.57;;;23.60;37.60;;;;;;5014325;28;20017;-77
2022/04/15 11:13:04;;;;;;;7.13;3.40;;;23.70;39.10;;;;;;5012226;28;20049;-77
2022/04/15 11:16:00;;;;;;;8.95;3.75;;;23.80;39.20;;;;;;5012946;28;20030;-80
2022/04/15 11:18:55;;;;;;;12.82;4.30;;;23.90;37.70;;;;;;5013113;28;20028;-73
2022/04/15 11:21:22;;;;;;;10.20;3.78;;;23.90;38.70;;;;;;5013558;28;20079;-74
2022/04/15 11:24:04;;;;;;;8.02;3.83;;;24.00;39.20;;;;;;5016300;28;20076;-74
2022/04/15 11:26:30;;;;;;;9.70;3.67;;;24.00;38.10;;;;;;5019947;28;20041;-80
2022/04/15 11:28:58;;;;;;;10.23;4.22;;;24.00;38.70;;;;;;5017234;28;20022;-73
2022/04/15 11:31:38;;;;;;;8.57;4.07;;;24.00;38.70;;;;;;5016412;28;20034;-75
2022/04/15 11:34:10;;;;;;;9.98;3.50;;;24.10;38.00;;;;;;5015938;28;20044;-74
2022/04/15 11:36:44;;;;;;;10.60;3.93;;;24.10;37.80;;;;;;5016330;28;20025;-72
2022/04/15 11:39:23;;;;;;;8.95;3.70;;;24.10;38.10;;;;;;5016210;28;20512;-75
2022/04/15 11:41:55;;;;;;;10.02;4.00;;;24.20;38.30;;;;;;5015985;28;20033;-76
2022/04/15 11:44:22;;;;;;;8.50;4.07;;;24.20;38.90;;;;;;5015835;28;20037;-77
2022/04/15 11:46:52;;;;;;;10.43;4.25;;;24.30;38.00;;;;;;5015252;28;20066;-78
2022/04/15 11:49:20;;;;;;;8.10;3.67;;;24.40;37.70;;;;;;5015625;28;20069;-78
2022/04/15 11:51:48;;;;;;;7.32;4.00;;;24.40;37.90;;;;;;5016853;28;20049;-78
2022/04/15 11:54:14;;;;;;;10.02;4.25;;;24.50;38.00;;;;;;5015703;28;20456;-72
2022/04/15 11:56:42;;;;;;;16.85;10.40;;;24.50;37.50;;;;;;5015528;28;20042;-74
2022/04/15 11:59:09;;;;;;;12.85;4.65;;;24.50;37.50;;;;;;5015172;28;20037;-70
2022/04/15 12:01:36;;;;;;;11.07;3.78;;;24.50;37.40;;;;;;5015569;28;20112;-71
2022/04/15 12:04:05;;;;;;;10.07;3.80;;;24.60;37.90;;;;;;5015056;28;20030;-79
2022/04/15 12:06:31;;;;;;;8.25;3.58;;;24.60;37.50;;;;;;5015257;28;20069;-73
2022/04/15 12:08:57;;;;;;;6.93;3.53;;;24.70;37.10;;;;;;5015558;28;20030;-75
2022/04/15 12:11:25;;;;;;;7.05;3.22;;;24.80;37.10;;;;;;5015714;28;20026;-80
2022/04/15 12:13:59;;;;;;;6.20;3.15;;;24.80;36.80;;;;;;5015346;28;20080;-75
2022/04/15 12:16:27;;;;;;;10.48;3.88;;;24.80;36.70;;;;;;5015111;28;20072;-72
2022/04/15 12:18:53;;;;;;;8.30;3.97;;;24.90;37.10;;;;;;5015507;28;20018;-71
2022/04/15 12:21:20;;;;;;;7.45;4.20;;;25.00;37.10;;;;;;5015202;28;20060;-72
2022/04/15 12:24:09;;;;;;;8.90;4.55;;;25.10;37.40;;;;;;5015116;28;20026;-72
2022/04/15 12:26:46;;;;;;;9.15;3.60;;;25.20;36.10;;;;;;5014851;28;20136;-72
2022/04/15 12:32:19;;;;;;;12.20;3.88;;;25.40;36.60;;;;;;5015369;28;20048;-72
2022/04/15 12:34:47;;;;;;;10.32;4.35;;;25.50;35.90;;;;;;5013843;28;20054;-71
2022/04/15 12:37:49;;;;;;;17.13;12.73;;;25.60;36.70;;;;;;5014509;28;20479;-72
2022/04/15 12:40:14;;;;;;;8.23;3.53;;;25.60;35.40;;;;;;5013569;28;20049;-75
2022/04/15 12:42:44;;;;;;;9.23;4.18;;;25.70;36.60;;;;;;5015917;28;20030;-83
2022/04/15 12:45:19;;;;;;;8.82;3.70;;;25.70;36.40;;;;;;5014922;28;20064;-73
2022/04/15 12:48:00;;;;;;;9.75;3.80;;;25.70;36.70;;;;;;5018168;28;20026;-76
2022/04/15 12:50:31;;;;;;;11.65;3.90;;;25.70;35.80;;;;;;5013576;28;20076;-73